Time;durP1;ratioP1;P1;durP2;ratioP2;P2;SDS_P1;SDS_P2;PMS_P1;PMS_P2;Temp;Humidity;BMP_temperature;BMP_pressure;BME280_temperature;BME280_humidity;BME280_pressure;Samples;Min_cycle;Max_cycle;Signal;HPM_P1;HPM_P2
2022/05/09 00:00:05;;;;;;;6.63;1.90;;;6.60;99.90;;;;;;5009432;28;20350;-49
2022/05/09 00:02:31;;;;;;;5.32;2.17;;;6.60;99.90;;;;;;5009539;28;20550;-49
2022/05/09 00:04:57;;;;;;;3.78;2.03;;;6.50;99.90;;;;;;5008699;28;20080;-50
2022/05/09 00:07:23;;;;;;;6.05;2.42;;;6.50;99.90;;;;;;5009857;28;20486;-52
2022/05/09 00:09:48;;;;;;;3.38;1.90;;;6.50;99.90;;;;;;5009489;28;20037;-50
2022/05/09 00:12:14;;;;;;;5.95;2.20;;;6.50;99.90;;;;;;5009494;28;20030;-48
2022/05/09 00:14:39;;;;;;;2.75;1.88;;;6.50;99.90;;;;;;5009972;28;20034;-51
2022/05/09 00:17:05;;;;;;;2.92;1.88;;;6.40;99.90;;;;;;5009992;28;20026;-48
2022/05/09 00:19:31;;;;;;;3.53;2.00;;;6.40;99.90;;;;;;5009391;28;20022;-48
2022/05/09 00:21:57;;;;;;;3.67;2.58;;;6.30;99.90;;;;;;5009598;28;20026;-52
2022/05/09 00:24:23;;;;;;;3.45;2.45;;;6.30;99.90;;;;;;5009501;28;20552;-50
2022/05/09 00:26:50;;;;;;;4.03;2.10;;;6.30;99.90;;;;;;5009333;28;20026;-47
2022/05/09 00:29:17;;;;;;;4.38;1.90;;;6.30;99.90;;;;;;4991920;28;20022;-49
2022/05/09 00:31:46;;;;;;;3.72;2.38;;;6.30;99.90;;;;;;5009135;28;20021;-50
2022/05/09 00:34:16;;;;;;;3.03;2.22;;;6.20;99.90;;;;;;5009223;28;20041;-48
2022/05/09 00:36:42;;;;;;;6.18;1.88;;;6.20;99.90;;;;;;5009822;28;20393;-48
2022/05/09 00:39:07;;;;;;;3.40;2.10;;;6.20;99.90;;;;;;5012737;28;20153;-48
2022/05/09 00:41:37;;;;;;;3.75;2.00;;;6.10;99.90;;;;;;4994772;28;20033;-48
2022/05/09 00:44:23;;;;;;;2.65;1.55;;;6.10;99.90;;;;;;5012798;28;20022;-48
2022/05/09 00:46:54;;;;;;;3.25;2.70;;;6.10;99.90;;;;;;4995322;28;20041;-50
2022/05/09 00:49:45;;;;;;;5.32;2.55;;;6.10;99.90;;;;;;5012970;28;20026;-50
2022/05/09 00:52:20;;;;;;;3.92;1.92;;;6.00;99.90;;;;;;5010469;28;20018;-50
2022/05/09 00:54:56;;;;;;;3.47;1.75;;;6.00;99.90;;;;;;5012722;28;20022;-49
2022/05/09 00:57:27;;;;;;;3.15;2.08;;;6.00;99.90;;;;;;5012723;28;20033;-48
2022/05/09 00:59:58;;;;;;;3.40;1.83;;;5.90;99.90;;;;;;5009976;28;20037;-48
2022/05/09 01:02:25;;;;;;;5.10;2.22;;;5.90;99.90;;;;;;5010220;28;20069;-49
2022/05/09 01:04:57;;;;;;;5.95;2.25;;;5.90;99.90;;;;;;4993634;28;20508;-49
2022/05/09 01:07:24;;;;;;;5.30;2.03;;;5.90;99.90;;;;;;5012521;28;20025;-50
2022/05/09 01:09:50;;;;;;;4.60;2.05;;;5.90;99.90;;;;;;5012442;28;20041;-53
2022/05/09 01:12:22;;;;;;;4.32;2.00;;;5.90;99.90;;;;;;5012142;28;20021;-48
2022/05/09 01:14:48;;;;;;;3.67;1.80;;;5.80;99.90;;;;;;5012474;28;20040;-48
2022/05/09 01:17:15;;;;;;;3.17;2.00;;;5.80;99.90;;;;;;4994894;28;20040;-50
2022/05/09 01:19:44;;;;;;;3.25;1.50;;;5.80;99.90;;;;;;5011783;28;20029;-48
2022/05/09 01:22:29;;;;;;;2.97;1.60;;;5.70;99.90;;;;;;5011991;28;20446;-47
2022/05/09 01:25:03;;;;;;;4.32;1.88;;;5.70;99.90;;;;;;5012078;28;20029;-50
2022/05/09 01:27:34;;;;;;;6.07;2.05;;;5.70;99.90;;;;;;5012338;28;20287;-51
2022/05/09 01:30:04;;;;;;;5.88;1.88;;;5.60;99.90;;;;;;5012383;28;20112;-50
2022/05/09 01:32:37;;;;;;;4.40;1.90;;;5.60;99.90;;;;;;5012077;28;20077;-50
2022/05/09 01:35:28;;;;;;;4.90;2.17;;;5.60;99.90;;;;;;5012253;28;20053;-50
2022/05/09 01:38:04;;;;;;;2.55;1.60;;;5.50;99.90;;;;;;5002465;28;20045;-50
2022/05/09 01:40:30;;;;;;;4.53;2.20;;;5.50;99.90;;;;;;5012007;28;20022;-48
2022/05/09 01:42:55;;;;;;;4.70;1.88;;;5.50;99.90;;;;;;5011514;28;20022;-52
2022/05/09 01:45:21;;;;;;;5.28;2.72;;;5.50;99.90;;;;;;5011934;28;20036;-50
2022/05/09 01:50:30;;;;;;;3.83;1.83;;;5.40;99.90;;;;;;5011892;28;20160;-49
2022/05/09 01:52:56;;;;;;;2.65;1.52;;;5.40;99.90;;;;;;5008682;28;20124;-47
2022/05/09 01:55:22;;;;;;;4.82;1.77;;;5.40;99.90;;;;;;4999441;28;20026;-50
2022/05/09 01:57:49;;;;;;;4.97;2.30;;;5.40;99.90;;;;;;5008023;28;20026;-48
2022/05/09 02:00:15;;;;;;;3.95;2.38;;;5.40;99.90;;;;;;5010986;28;20041;-47
2022/05/09 02:02:41;;;;;;;2.60;1.55;;;5.40;99.90;;;;;;5008608;28;20036;-49
2022/05/09 02:05:07;;;;;;;3.97;2.17;;;5.40;99.90;;;;;;4999217;28;20371;-49
2022/05/09 02:07:33;;;;;;;6.03;2.30;;;5.40;99.90;;;;;;5005890;28;20060;-47
2022/05/09 02:09:59;;;;;;;3.53;2.30;;;5.40;99.90;;;;;;4993165;28;20113;-47
2022/05/09 02:12:24;;;;;;;5.15;1.70;;;5.40;99.90;;;;;;5011509;28;20019;-48
2022/05/09 02:14:50;;;;;;;3.15;2.28;;;5.40;99.90;;;;;;5011287;28;20061;-49
2022/05/09 02:17:16;;;;;;;7.30;2.45;;;5.40;99.90;;;;;;5011180;28;20552;-48
2022/05/09 02:19:42;;;;;;;3.67;2.22;;;5.40;99.90;;;;;;5010901;28;20410;-50
2022/05/09 02:22:09;;;;;;;4.30;2.08;;;5.30;99.90;;;;;;5011124;28;20054;-47
2022/05/09 02:24:35;;;;;;;6.70;1.70;;;5.30;99.90;;;;;;5010882;28;20030;-49
2022/05/09 02:27:01;;;;;;;5.32;2.20;;;5.30;99.90;;;;;;5010726;28;20025;-47
2022/05/09 02:29:27;;;;;;;6.57;2.45;;;5.30;99.90;;;;;;5011002;28;20022;-47
2022/05/09 02:31:55;;;;;;;3.85;1.45;;;5.30;99.90;;;;;;5010718;28;20072;-49
2022/05/09 02:34:21;;;;;;;5.70;2.65;;;5.30;99.90;;;;;;5010742;28;20049;-47
2022/05/09 02:36:47;;;;;;;5.07;2.03;;;5.30;99.90;;;;;;4993269;28;20037;-46
2022/05/09 02:39:13;;;;;;;3.20;1.80;;;5.30;99.90;;;;;;5010637;28;20029;-47
2022/05/09 02:41:38;;;;;;;5.18;1.77;;;5.20;99.90;;;;;;5010454;28;20038;-49
2022/05/09 02:44:04;;;;;;;4.15;2.10;;;5.20;99.90;;;;;;5010741;28;20057;-47
2022/05/09 02:46:29;;;;;;;4.72;2.15;;;5.20;99.90;;;;;;5011005;28;20033;-48
2022/05/09 02:48:59;;;;;;;4.97;1.88;;;5.20;99.90;;;;;;4993174;28;20087;-48
2022/05/09 02:51:26;;;;;;;6.00;1.98;;;5.10;99.90;;;;;;5010619;28;20246;-49
2022/05/09 02:53:51;;;;;;;4.72;2.20;;;5.10;99.90;;;;;;5010613;28;20161;-48
2022/05/09 02:56:17;;;;;;;3.25;2.17;;;5.10;99.90;;;;;;4993170;28;20120;-47
2022/05/09 02:58:43;;;;;;;2.53;2.03;;;5.10;99.90;;;;;;5010406;28;20042;-47
2022/05/09 03:01:08;;;;;;;7.75;2.22;;;5.10;99.90;;;;;;5009763;28;20355;-52
2022/05/09 03:06:18;;;;;;;5.03;2.15;;;5.00;99.90;;;;;;5010399;28;20037;-47
2022/05/09 03:08:44;;;;;;;5.47;2.63;;;5.00;99.90;;;;;;5010090;28;20034;-46
2022/05/09 03:11:10;;;;;;;4.78;2.30;;;5.00;99.90;;;;;;5010028;28;20037;-48
2022/05/09 03:13:36;;;;;;;7.05;2.25;;;5.00;99.90;;;;;;5010020;28;20033;-47
2022/05/09 03:16:02;;;;;;;6.57;2.78;;;5.00;99.90;;;;;;5010412;28;20045;-47
2022/05/09 03:18:28;;;;;;;5.97;2.75;;;5.00;99.90;;;;;;5010022;28;20583;-49
2022/05/09 03:20:54;;;;;;;7.38;2.30;;;4.90;99.90;;;;;;5010157;28;20154;-47
2022/05/09 03:23:20;;;;;;;5.32;2.03;;;4.90;99.90;;;;;;4992749;28;20129;-49
2022/05/09 03:25:46;;;;;;;5.43;2.22;;;4.90;99.90;;;;;;5010222;28;20469;-51
2022/05/09 03:28:16;;;;;;;9.40;2.63;;;4.90;99.90;;;;;;5009480;28;20056;-47
2022/05/09 03:30:44;;;;;;;5.00;1.63;;;4.80;99.90;;;;;;5010401;28;20105;-47
2022/05/09 03:33:11;;;;;;;5.78;2.40;;;4.80;99.90;;;;;;5009792;28;20033;-47
2022/05/09 03:35:38;;;;;;;4.00;2.60;;;4.80;99.90;;;;;;5010126;28;20034;-51
2022/05/09 03:38:04;;;;;;;6.22;2.22;;;4.80;99.90;;;;;;5010151;28;20082;-52
2022/05/09 03:40:29;;;;;;;4.95;2.45;;;4.80;99.90;;;;;;5009744;28;20044;-49
2022/05/09 03:42:55;;;;;;;4.53;2.03;;;4.80;99.90;;;;;;5009771;28;20026;-52
2022/05/09 03:45:20;;;;;;;3.45;1.77;;;4.70;99.90;;;;;;5009864;28;20437;-51
2022/05/09 03:47:46;;;;;;;6.57;2.30;;;4.70;99.90;;;;;;5009739;28;20026;-47
2022/05/09 03:50:13;;;;;;;4.50;2.53;;;4.70;99.90;;;;;;5009783;28;20030;-51
2022/05/09 03:52:38;;;;;;;6.75;2.78;;;4.70;99.90;;;;;;5009655;28;20080;-48
2022/05/09 03:55:05;;;;;;;5.22;2.10;;;4.70;99.90;;;;;;5009819;28;20052;-47
2022/05/09 03:57:30;;;;;;;9.30;2.28;;;4.70;99.90;;;;;;5009809;28;20489;-48
2022/05/09 04:00:03;;;;;;;7.50;2.78;;;4.70;99.90;;;;;;5009451;28;20061;-49
2022/05/09 04:02:28;;;;;;;5.72;2.33;;;4.70;99.90;;;;;;5009483;28;20042;-48
2022/05/09 04:04:54;;;;;;;3.78;2.20;;;4.70;99.90;;;;;;4992132;28;20482;-47
2022/05/09 04:07:19;;;;;;;3.97;2.58;;;4.70;99.90;;;;;;5009865;28;20033;-51
2022/05/09 04:09:46;;;;;;;8.10;2.42;;;4.80;99.90;;;;;;5009665;28;20037;-50
2022/05/09 04:12:13;;;;;;;6.47;2.30;;;4.80;99.90;;;;;;5012259;28;20034;-50
2022/05/09 04:17:22;;;;;;;5.78;2.83;;;4.80;99.90;;;;;;5013329;28;20068;-48
2022/05/09 04:19:48;;;;;;;10.15;2.88;;;4.90;99.90;;;;;;5012743;28;20069;-49
2022/05/09 04:22:14;;;;;;;4.85;3.00;;;4.90;99.90;;;;;;5013140;28;20029;-48
2022/05/09 04:24:40;;;;;;;4.53;2.42;;;4.90;99.90;;;;;;5013145;28;20018;-48
2022/05/09 04:27:06;;;;;;;6.97;2.42;;;5.00;99.90;;;;;;5012891;28;20033;-48
2022/05/09 04:29:32;;;;;;;6.13;2.30;;;5.00;99.90;;;;;;5012942;28;20497;-48
2022/05/09 04:31:58;;;;;;;4.22;2.33;;;5.00;99.90;;;;;;4995166;28;20038;-49
2022/05/09 04:34:23;;;;;;;7.22;2.28;;;5.10;99.90;;;;;;5013134;28;20034;-48
2022/05/09 04:36:49;;;;;;;4.05;2.20;;;5.10;99.90;;;;;;5012887;28;20030;-47
2022/05/09 04:39:16;;;;;;;4.00;2.55;;;5.20;99.90;;;;;;5012917;28;20076;-49
2022/05/09 04:41:41;;;;;;;7.97;2.20;;;5.30;99.90;;;;;;5013047;28;20505;-48
2022/05/09 04:44:08;;;;;;;3.95;2.10;;;5.30;99.90;;;;;;5012731;28;20030;-50
2022/05/09 04:46:34;;;;;;;6.05;2.45;;;5.40;99.90;;;;;;4995740;28;20402;-51
2022/05/09 04:49:00;;;;;;;3.92;2.30;;;5.40;99.90;;;;;;5013030;28;20033;-48
2022/05/09 04:51:26;;;;;;;7.22;2.25;;;5.40;99.90;;;;;;5012659;28;20038;-49
2022/05/09 04:53:51;;;;;;;4.65;2.33;;;5.50;99.90;;;;;;5012797;28;20117;-47
2022/05/09 04:56:18;;;;;;;4.70;2.03;;;5.50;99.90;;;;;;5012641;28;20038;-50
2022/05/09 04:58:44;;;;;;;4.50;2.30;;;5.60;99.90;;;;;;5012434;28;20133;-49
2022/05/09 05:01:10;;;;;;;4.25;2.45;;;5.60;99.90;;;;;;5012473;28;20454;-47
2022/05/09 05:03:35;;;;;;;5.60;2.40;;;5.70;99.90;;;;;;4995009;28;20124;-52
2022/05/09 05:06:03;;;;;;;5.72;2.83;;;5.80;99.90;;;;;;5012162;28;20054;-48
2022/05/09 05:08:33;;;;;;;3.13;1.92;;;5.80;99.90;;;;;;5012499;28;20030;-49
2022/05/09 05:11:02;;;;;;;4.78;2.33;;;5.90;99.90;;;;;;5012378;28;20398;-49
2022/05/09 05:13:28;;;;;;;6.88;2.67;;;5.90;99.90;;;;;;5012076;28;20129;-53
2022/05/09 05:15:54;;;;;;;3.70;2.22;;;6.00;99.90;;;;;;5012324;28;20101;-49
2022/05/09 05:18:25;;;;;;;7.40;3.17;;;6.10;99.90;;;;;;5012371;28;20065;-52
2022/05/09 05:20:52;;;;;;;4.22;2.35;;;6.20;99.90;;;;;;5012333;28;20044;-49
2022/05/09 05:23:18;;;;;;;3.55;2.20;;;6.30;99.90;;;;;;5011682;28;20030;-50
2022/05/09 05:25:45;;;;;;;4.63;2.55;;;6.40;99.90;;;;;;5012311;28;20105;-49
2022/05/09 05:28:15;;;;;;;12.07;2.65;;;6.40;99.90;;;;;;5012327;28;20030;-49
2022/05/09 05:30:41;;;;;;;8.25;2.47;;;6.50;99.90;;;;;;5012088;28;20045;-47
2022/05/09 05:33:06;;;;;;;5.40;2.05;;;6.60;99.90;;;;;;5011980;28;20038;-51
2022/05/09 05:35:32;;;;;;;6.82;2.53;;;6.70;99.90;;;;;;5012095;28;20033;-49
2022/05/09 05:37:58;;;;;;;3.15;2.28;;;6.70;99.90;;;;;;5012102;28;20042;-48
2022/05/09 05:40:24;;;;;;;6.93;2.85;;;6.90;99.90;;;;;;5011789;28;20617;-50
2022/05/09 05:42:52;;;;;;;8.25;2.72;;;6.90;99.90;;;;;;5011659;28;20149;-49
2022/05/09 05:45:20;;;;;;;4.22;2.30;;;7.00;99.90;;;;;;5011891;28;20093;-47
2022/05/09 05:47:47;;;;;;;6.25;2.55;;;7.10;99.90;;;;;;5011668;28;20025;-49
2022/05/09 05:50:14;;;;;;;3.47;2.53;;;7.20;99.90;;;;;;5011743;28;20084;-49
2022/05/09 05:52:40;;;;;;;5.47;2.38;;;7.30;99.90;;;;;;5011424;28;20523;-48
2022/05/09 05:55:06;;;;;;;7.05;2.35;;;7.50;99.90;;;;;;5011790;28;20100;-49
2022/05/09 05:57:34;;;;;;;6.93;2.08;;;7.60;99.90;;;;;;5011828;28;20409;-50
2022/05/09 06:00:19;;;;;;;5.30;1.63;;;7.70;99.90;;;;;;5011521;28;20045;-49
2022/05/09 06:02:45;;;;;;;5.43;2.47;;;7.90;99.90;;;;;;5011618;28;20108;-52
2022/05/09 06:05:12;;;;;;;5.40;2.65;;;8.10;99.90;;;;;;5011723;28;20290;-49
2022/05/09 06:07:38;;;;;;;7.03;2.38;;;8.30;99.90;;;;;;4994052;28;20029;-49
2022/05/09 06:10:05;;;;;;;6.38;2.45;;;8.50;99.90;;;;;;5011562;28;20516;-48
2022/05/09 06:12:30;;;;;;;8.93;3.55;;;8.70;99.90;;;;;;5011241;28;20034;-48
2022/05/09 06:17:40;;;;;;;3.95;2.45;;;9.10;99.90;;;;;;5011422;28;20088;-48
2022/05/09 06:20:09;;;;;;;6.43;2.22;;;9.40;99.90;;;;;;5011000;28;20038;-51
2022/05/09 06:22:37;;;;;;;5.80;2.45;;;9.70;99.90;;;;;;5011130;28;20025;-47
2022/05/09 06:25:08;;;;;;;4.20;2.28;;;9.90;99.90;;;;;;5011409;28;20080;-50
2022/05/09 06:27:33;;;;;;;5.90;2.00;;;10.20;99.90;;;;;;5011238;28;20653;-49
2022/05/09 06:30:05;;;;;;;5.80;2.70;;;10.40;99.90;;;;;;5011132;28;20113;-49
2022/05/09 06:32:31;;;;;;;7.93;2.15;;;10.70;99.90;;;;;;5010925;28;20025;-48
2022/05/09 06:34:56;;;;;;;7.32;2.20;;;10.90;99.90;;;;;;5011212;28;20034;-49
2022/05/09 06:37:24;;;;;;;7.55;2.38;;;11.10;99.90;;;;;;5011260;28;20026;-49
2022/05/09 06:39:51;;;;;;;6.28;2.10;;;11.40;99.90;;;;;;5011040;28;20068;-49
2022/05/09 06:42:17;;;;;;;8.18;2.65;;;11.70;99.90;;;;;;5011145;28;20030;-47
2022/05/09 06:44:43;;;;;;;8.70;2.13;;;11.90;99.90;;;;;;5010987;28;20037;-48
2022/05/09 06:47:11;;;;;;;6.60;2.15;;;12.20;99.90;;;;;;5010969;28;20396;-52
2022/05/09 06:49:37;;;;;;;10.15;2.28;;;12.40;99.90;;;;;;5010297;28;20686;-49
2022/05/09 06:52:03;;;;;;;6.07;2.10;;;12.70;99.90;;;;;;5010776;28;20049;-49
2022/05/09 06:54:28;;;;;;;7.32;2.05;;;12.90;99.90;;;;;;5010673;28;20030;-50
2022/05/09 06:56:54;;;;;;;3.53;2.00;;;13.10;99.90;;;;;;5010752;28;20028;-48
2022/05/09 06:59:20;;;;;;;5.03;2.47;;;13.30;99.90;;;;;;5010192;28;20037;-48
2022/05/09 07:01:46;;;;;;;7.97;2.05;;;13.50;99.90;;;;;;5010113;28;20111;-47
2022/05/09 07:04:11;;;;;;;3.63;1.75;;;13.60;99.90;;;;;;5010523;28;20041;-51
2022/05/09 07:06:37;;;;;;;4.22;1.90;;;13.70;99.90;;;;;;5010671;28;20025;-49
2022/05/09 07:09:05;;;;;;;8.93;2.20;;;14.00;99.90;;;;;;4992941;28;20022;-50
2022/05/09 07:11:31;;;;;;;9.15;2.67;;;14.10;99.90;;;;;;5010364;28;20401;-50
2022/05/09 07:13:56;;;;;;;7.93;1.88;;;14.40;99.90;;;;;;5010377;28;20048;-46
2022/05/09 07:16:22;;;;;;;6.53;1.77;;;14.50;99.90;;;;;;5010531;28;20057;-46
2022/05/09 07:18:47;;;;;;;4.80;1.33;;;14.70;99.90;;;;;;4992280;28;20058;-46
2022/05/09 07:21:13;;;;;;;6.07;1.75;;;14.80;99.90;;;;;;5010529;28;20092;-50
2022/05/09 07:23:39;;;;;;;4.25;1.65;;;14.90;99.90;;;;;;5010578;28;20109;-47
2022/05/09 07:26:05;;;;;;;4.18;1.65;;;15.10;99.90;;;;;;5010442;28;20037;-50
2022/05/09 07:28:30;;;;;;;3.22;1.60;;;15.20;99.90;;;;;;5010052;28;20510;-49
2022/05/09 07:30:58;;;;;;;3.90;1.95;;;15.40;99.50;;;;;;5010199;28;20033;-48
2022/05/09 07:33:24;;;;;;;4.25;1.45;;;15.50;98.90;;;;;;5009953;28;20108;-49
2022/05/09 07:35:49;;;;;;;5.72;1.83;;;15.70;98.30;;;;;;5010233;28;20041;-47
2022/05/09 07:38:16;;;;;;;7.22;1.60;;;15.80;97.00;;;;;;5010153;28;20109;-47
2022/05/09 07:40:44;;;;;;;3.40;1.52;;;15.90;97.80;;;;;;5010077;28;20060;-49
2022/05/09 07:43:23;;;;;;;6.45;1.70;;;16.10;96.70;;;;;;5009810;28;20517;-49
2022/05/09 07:45:51;;;;;;;4.55;1.48;;;16.20;96.60;;;;;;5011502;28;20493;-48
2022/05/09 07:48:21;;;;;;;2.17;1.38;;;16.30;96.00;;;;;;4998940;28;20050;-48
2022/05/09 07:50:47;;;;;;;4.28;1.70;;;16.40;95.70;;;;;;5016723;28;20064;-51
2022/05/09 07:53:20;;;;;;;3.28;1.23;;;16.60;95.80;;;;;;5016334;28;20029;-48
2022/05/09 07:55:46;;;;;;;3.97;1.90;;;16.80;95.20;;;;;;5016508;28;20029;-53
2022/05/09 07:58:13;;;;;;;2.40;1.40;;;17.00;95.40;;;;;;5016585;28;20030;-53
2022/05/09 08:00:40;;;;;;;4.47;1.23;;;17.20;95.50;;;;;;5016664;28;20061;-52
2022/05/09 08:03:12;;;;;;;1.67;1.17;;;17.40;93.40;;;;;;5016416;28;20018;-54
2022/05/09 08:05:37;;;;;;;4.50;1.40;;;17.70;93.30;;;;;;4991379;28;20117;-49
2022/05/09 08:08:03;;;;;;;3.92;1.45;;;17.80;91.90;;;;;;5014862;28;20105;-52
2022/05/09 08:10:30;;;;;;;3.72;1.38;;;18.00;92.10;;;;;;5016253;28;20072;-50
2022/05/09 08:12:56;;;;;;;2.38;1.05;;;18.10;92.00;;;;;;5016109;28;20494;-48
2022/05/09 08:15:22;;;;;;;5.00;1.42;;;18.20;90.20;;;;;;5016308;28;20462;-50
2022/05/09 08:17:49;;;;;;;4.97;1.65;;;18.40;90.70;;;;;;5016507;28;20053;-49
2022/05/09 08:20:16;;;;;;;3.30;1.27;;;18.50;89.60;;;;;;5015740;28;20103;-50
2022/05/09 08:22:42;;;;;;;2.67;1.10;;;18.70;88.50;;;;;;5015995;28;20021;-48
2022/05/09 08:25:10;;;;;;;2.03;1.33;;;18.70;83.10;;;;;;5016433;28;20029;-49
2022/05/09 08:27:36;;;;;;;5.38;1.15;;;18.90;85.50;;;;;;4999155;28;20022;-49
2022/05/09 08:30:03;;;;;;;2.90;1.52;;;19.10;83.80;;;;;;5016078;28;20030;-48
2022/05/09 08:32:29;;;;;;;1.98;0.98;;;19.20;81.70;;;;;;4998345;28;20033;-49
2022/05/09 08:34:55;;;;;;;3.30;1.15;;;19.40;79.10;;;;;;5016216;28;20025;-47
2022/05/09 08:37:21;;;;;;;3.92;1.38;;;19.20;73.70;;;;;;5016310;28;20105;-50
2022/05/09 08:39:47;;;;;;;3.55;1.50;;;19.20;75.30;;;;;;4998701;28;20109;-53
2022/05/09 08:42:29;;;;;;;4.07;1.45;;;19.40;74.80;;;;;;5015985;28;20026;-49
2022/05/09 08:45:17;;;;;;;6.78;1.58;;;19.50;77.30;;;;;;5016085;28;20022;-48
2022/05/09 08:48:00;;;;;;;3.72;1.25;;;19.60;75.90;;;;;;5016075;28;20077;-51
2022/05/09 08:50:46;;;;;;;3.35;1.45;;;19.60;72.20;;;;;;5016045;28;20032;-49
2022/05/09 08:53:22;;;;;;;2.80;1.20;;;19.80;72.70;;;;;;5015792;28;20712;-50
2022/05/09 08:55:49;;;;;;;6.07;1.65;;;20.00;75.00;;;;;;5015925;28;20119;-50
2022/05/09 08:58:19;;;;;;;3.13;1.73;;;20.10;71.50;;;;;;5012476;28;20050;-48
2022/05/09 09:00:47;;;;;;;2.75;1.13;;;20.10;71.80;;;;;;5012906;28;20029;-48
2022/05/09 09:03:28;;;;;;;4.38;1.65;;;20.20;73.70;;;;;;4995034;28;20018;-51
2022/05/09 09:05:58;;;;;;;2.88;1.50;;;20.40;71.40;;;;;;5012571;28;20080;-51
2022/05/09 09:08:49;;;;;;;5.57;1.70;;;20.50;72.10;;;;;;4995673;28;20097;-49
2022/05/09 09:11:37;;;;;;;5.53;1.42;;;20.60;70.30;;;;;;5012404;28;20414;-49
2022/05/09 09:14:18;;;;;;;4.47;1.83;;;20.50;71.90;;;;;;4975897;28;20569;-48
2022/05/09 09:16:59;;;;;;;4.57;1.60;;;20.50;69.40;;;;;;5013139;28;20061;-49
2022/05/09 09:19:43;;;;;;;4.40;1.52;;;20.60;70.30;;;;;;5012435;28;20026;-51
2022/05/09 09:22:18;;;;;;;1.60;1.30;;;20.70;72.00;;;;;;5012221;28;20526;-48
2022/05/09 09:25:20;;;;;;;5.13;1.98;;;20.80;70.20;;;;;;5012513;28;20034;-52
2022/05/09 09:27:53;;;;;;;3.55;1.33;;;20.80;69.70;;;;;;5012337;28;20560;-48
2022/05/09 09:30:24;;;;;;;4.55;1.10;;;20.90;70.40;;;;;;5012537;28;20034;-52
2022/05/09 09:32:55;;;;;;;4.65;1.77;;;21.00;70.50;;;;;;5012110;28;20105;-51
2022/05/09 09:35:46;;;;;;;8.73;1.40;;;21.10;70.10;;;;;;5012215;28;20108;-48
2022/05/09 09:38:29;;;;;;;4.53;1.80;;;21.10;67.60;;;;;;5012290;28;20053;-49
2022/05/09 09:40:55;;;;;;;8.38;2.33;;;21.20;67.60;;;;;;5012229;28;20030;-49
2022/05/09 09:43:20;;;;;;;6.90;1.98;;;20.90;69.50;;;;;;5011932;28;20030;-49
2022/05/09 09:46:01;;;;;;;6.20;2.30;;;20.80;69.10;;;;;;5012107;28;20109;-50
2022/05/09 09:48:26;;;;;;;3.60;1.70;;;20.80;68.50;;;;;;5011977;28;20022;-53
2022/05/09 09:50:59;;;;;;;4.60;1.70;;;20.90;66.60;;;;;;4994713;28;20029;-48
2022/05/09 09:53:52;;;;;;;5.60;1.80;;;20.90;69.20;;;;;;5012142;28;20030;-51
2022/05/09 09:56:20;;;;;;;2.05;1.38;;;20.90;65.40;;;;;;5011479;28;20104;-53
2022/05/09 09:59:10;;;;;;;4.25;1.67;;;20.80;65.50;;;;;;5011812;28;20034;-52
2022/05/09 10:01:36;;;;;;;3.33;1.33;;;20.80;69.00;;;;;;5000948;28;20465;-52
2022/05/09 10:04:25;;;;;;;5.05;1.90;;;21.10;68.20;;;;;;4994291;28;20113;-53
2022/05/09 10:07:12;;;;;;;4.65;1.52;;;21.20;66.80;;;;;;5011819;28;20603;-53
2022/05/09 10:09:41;;;;;;;4.40;1.73;;;20.90;68.50;;;;;;5011226;28;20529;-53
2022/05/09 10:12:19;;;;;;;4.88;2.05;;;20.90;66.10;;;;;;5011474;28;20504;-50
2022/05/09 10:14:46;;;;;;;5.03;1.65;;;21.00;68.60;;;;;;5011749;28;20022;-49
2022/05/09 10:17:26;;;;;;;4.40;1.73;;;21.10;66.70;;;;;;5011698;28;20395;-52
2022/05/09 10:19:54;;;;;;;3.63;1.40;;;21.20;66.70;;;;;;5011256;28;20098;-52
2022/05/09 10:25:28;;;;;;;4.47;1.58;;;20.80;66.50;;;;;;5011810;28;20068;-52
2022/05/09 10:28:16;;;;;;;5.68;1.58;;;20.80;67.20;;;;;;5011469;28;20046;-52
2022/05/09 10:30:48;;;;;;;6.30;1.42;;;20.90;67.20;;;;;;5011662;28;20022;-48
2022/05/09 10:33:31;;;;;;;8.02;1.98;;;20.90;66.20;;;;;;5011283;28;20055;-48
2022/05/09 10:36:01;;;;;;;4.63;1.90;;;20.80;68.30;;;;;;5011615;28;20032;-50
2022/05/09 10:38:39;;;;;;;6.30;2.10;;;20.70;68.60;;;;;;5011088;28;20063;-51
2022/05/09 10:41:13;;;;;;;5.38;2.13;;;20.70;67.60;;;;;;5011145;28;20105;-53
2022/05/09 10:43:52;;;;;;;5.63;2.08;;;20.70;67.50;;;;;;4993374;28;20109;-47
2022/05/09 10:46:20;;;;;;;8.50;2.20;;;20.40;69.10;;;;;;5011160;28;20080;-51
2022/05/09 10:48:53;;;;;;;6.38;2.22;;;20.40;69.60;;;;;;5010899;28;20656;-49
2022/05/09 10:51:28;;;;;;;4.03;1.67;;;20.40;66.90;;;;;;5010851;28;20116;-49
2022/05/09 10:54:18;;;;;;;4.43;1.70;;;20.30;68.90;;;;;;4993143;28;20109;-53
2022/05/09 10:56:49;;;;;;;8.70;2.00;;;20.30;70.00;;;;;;5010974;28;20041;-49
2022/05/09 10:59:38;;;;;;;4.72;1.95;;;20.30;67.00;;;;;;4992933;28;20038;-47
2022/05/09 11:02:24;;;;;;;3.78;1.60;;;20.20;68.20;;;;;;5010490;28;20056;-50
2022/05/09 11:04:50;;;;;;;3.30;1.83;;;20.40;67.60;;;;;;5010500;28;20018;-50
2022/05/09 11:07:52;;;;;;;4.65;1.95;;;20.30;66.30;;;;;;5010735;28;20029;-49
2022/05/09 11:10:33;;;;;;;7.18;2.25;;;20.40;64.30;;;;;;5010706;28;20138;-48
2022/05/09 11:13:17;;;;;;;3.05;1.77;;;20.40;65.00;;;;;;5010427;28;20033;-48
2022/05/09 11:16:34;;;;;;;6.68;1.63;;;20.30;64.30;;;;;;5010450;28;20029;-50
2022/05/09 11:19:17;;;;;;;5.20;1.90;;;20.40;65.30;;;;;;4966212;28;20042;-49
2022/05/09 11:21:59;;;;;;;5.75;1.58;;;20.30;63.60;;;;;;5009548;28;20574;-49
2022/05/09 11:24:59;;;;;;;3.30;1.52;;;20.30;62.70;;;;;;4992787;28;20022;-50
2022/05/09 11:27:55;;;;;;;3.05;1.25;;;20.30;64.30;;;;;;4992730;28;20033;-48
2022/05/09 11:30:37;;;;;;;5.57;1.90;;;20.30;57.30;;;;;;5010269;28;20022;-47
2022/05/09 11:33:14;;;;;;;3.70;1.45;;;20.30;56.80;;;;;;5010119;28;20072;-49
2022/05/09 11:35:41;;;;;;;3.63;1.35;;;20.20;57.90;;;;;;5010405;28;20029;-46
2022/05/09 11:38:34;;;;;;;3.08;1.08;;;20.30;59.70;;;;;;5010254;28;20018;-47
2022/05/09 11:41:17;;;;;;;3.05;1.40;;;20.40;60.20;;;;;;5010256;28;20401;-51
2022/05/09 11:44:16;;;;;;;5.93;1.80;;;20.50;58.10;;;;;;5010252;28;20017;-49
2022/05/09 11:46:47;;;;;;;3.80;1.30;;;20.50;53.00;;;;;;5005656;28;20080;-53
2022/05/09 11:49:22;;;;;;;2.33;1.35;;;20.50;55.80;;;;;;5010467;28;20023;-48
2022/05/09 11:51:54;;;;;;;5.57;1.45;;;20.40;59.40;;;;;;5010294;28;20041;-49
2022/05/09 11:54:30;;;;;;;5.10;1.52;;;20.40;56.60;;;;;;5010179;28;20026;-48
2022/05/09 11:57:01;;;;;;;4.38;1.70;;;20.50;57.20;;;;;;5010255;28;20029;-50
2022/05/09 11:59:30;;;;;;;3.75;1.83;;;20.50;56.80;;;;;;5009772;28;20060;-52
2022/05/09 12:01:59;;;;;;;2.92;1.35;;;20.50;56.60;;;;;;5009713;28;20044;-51
2022/05/09 12:04:35;;;;;;;4.30;1.60;;;20.60;57.20;;;;;;5009738;28;20636;-48
2022/05/09 12:07:20;;;;;;;3.42;1.77;;;20.70;55.60;;;;;;5009975;28;20045;-50
2022/05/09 12:10:11;;;;;;;3.10;1.63;;;20.80;56.60;;;;;;5009914;28;20530;-48
2022/05/09 12:12:37;;;;;;;4.90;1.63;;;20.80;53.30;;;;;;5009577;28;20034;-49
2022/05/09 12:15:06;;;;;;;5.38;1.80;;;20.90;54.90;;;;;;5009851;28;20032;-49
2022/05/09 12:17:35;;;;;;;3.97;1.70;;;20.90;57.30;;;;;;5009790;28;20018;-51
2022/05/09 12:20:04;;;;;;;3.35;1.58;;;21.00;56.80;;;;;;5009537;28;20025;-51
2022/05/09 12:22:37;;;;;;;3.53;2.05;;;21.10;58.30;;;;;;5009583;28;20032;-49
2022/05/09 12:25:07;;;;;;;4.60;1.42;;;21.30;56.20;;;;;;5009775;28;20101;-47
2022/05/09 12:28:04;;;;;;;3.25;1.85;;;21.30;57.10;;;;;;5010038;28;20025;-50
2022/05/09 12:30:42;;;;;;;3.50;1.88;;;21.50;55.50;;;;;;4996134;28;20042;-50
2022/05/09 12:33:14;;;;;;;4.45;1.98;;;21.50;57.30;;;;;;4994261;28;20053;-51
2022/05/09 12:35:41;;;;;;;3.47;1.50;;;21.50;57.20;;;;;;5013354;28;20480;-48
2022/05/09 12:38:11;;;;;;;3.38;1.40;;;21.30;56.30;;;;;;5013308;28;20036;-48
2022/05/09 12:40:37;;;;;;;2.90;1.52;;;21.40;59.10;;;;;;5013170;28;20026;-49
2022/05/09 12:43:03;;;;;;;4.03;2.10;;;21.50;59.40;;;;;;5013012;28;20662;-51
2022/05/09 12:45:31;;;;;;;4.30;1.65;;;21.60;56.50;;;;;;5013060;28;20183;-48
2022/05/09 12:47:57;;;;;;;7.40;1.98;;;21.70;56.00;;;;;;5013044;28;20568;-47
2022/05/09 12:50:30;;;;;;;5.65;1.90;;;21.80;56.10;;;;;;5013015;28;20108;-48
2022/05/09 12:53:04;;;;;;;4.50;1.60;;;22.00;57.20;;;;;;5012851;28;20442;-47
2022/05/09 12:55:52;;;;;;;3.80;1.83;;;21.90;55.80;;;;;;5013052;28;20048;-47
2022/05/09 12:58:33;;;;;;;4.93;1.80;;;21.80;58.10;;;;;;5012875;28;20040;-48
2022/05/09 13:01:04;;;;;;;4.30;1.42;;;21.90;57.90;;;;;;5012915;28;20030;-47
2022/05/09 13:03:31;;;;;;;6.95;1.85;;;22.10;58.30;;;;;;5012952;28;20061;-48
2022/05/09 13:06:10;;;;;;;6.40;1.85;;;22.20;58.70;;;;;;5013143;28;20076;-47
2022/05/09 13:08:37;;;;;;;3.72;1.90;;;22.40;56.70;;;;;;5012924;28;20072;-48
2022/05/09 13:11:14;;;;;;;7.40;2.67;;;22.50;55.20;;;;;;5012923;28;20026;-46
2022/05/09 13:13:39;;;;;;;2.83;1.50;;;22.50;57.70;;;;;;5012756;28;20017;-49
2022/05/09 13:16:05;;;;;;;6.25;1.65;;;22.70;57.30;;;;;;5012665;28;20437;-51
2022/05/09 13:18:32;;;;;;;4.35;1.95;;;22.70;53.00;;;;;;5012108;28;20056;-51
2022/05/09 13:21:08;;;;;;;4.30;1.85;;;22.70;55.60;;;;;;5012520;28;20049;-49
2022/05/09 13:23:37;;;;;;;2.50;1.70;;;22.70;55.40;;;;;;5012753;28;20021;-49